Time;durP1;ratioP1;P1;durP2;ratioP2;P2;SDS_P1;SDS_P2;PMS_P1;PMS_P2;Temp;Humidity;BMP_temperature;BMP_pressure;BME280_temperature;BME280_humidity;BME280_pressure;Samples;Min_cycle;Max_cycle;Signal;HPM_P1;HPM_P2
2021/11/20 00:04:54;;;;;;;8.40;6.20;;;;;;;9.37;85.74;98904.92;422502;1305;109198;-41
2021/11/20 00:15:02;;;;;;;14.00;6.10;;;;;;;9.37;85.62;98909.15;422425;1305;99422;-40
2021/11/20 00:25:11;;;;;;;17.30;11.10;;;;;;;9.34;85.57;98902.40;422679;1305;108820;-41
2021/11/20 00:35:22;;;;;;;10.20;5.10;;;;;;;9.34;85.48;98902.19;422304;1305;99312;-41
2021/11/20 00:45:30;;;;;;;10.00;6.30;;;;;;;9.36;85.48;98894.80;422674;1305;112500;-43
2021/11/20 01:05:45;;;;;;;13.70;6.20;;;;;;;9.32;85.42;98894.77;422446;1305;98989;-41
2021/11/20 01:16:04;;;;;;;9.80;5.10;;;;;;;9.30;85.25;98875.23;418616;1305;5482989;-40
2021/11/20 01:26:13;;;;;;;9.40;6.50;;;;;;;9.31;84.97;98864.63;422188;1305;98078;-41
2021/11/20 01:36:23;;;;;;;10.70;5.40;;;;;;;9.32;85.01;98865.07;422701;1305;112750;-41
2021/11/20 01:46:31;;;;;;;;;;;;;;;9.33;84.92;98858.77;422497;1306;108973;-40
2021/11/20 01:56:37;;;;;;;14.60;9.00;;;;;;;9.28;84.97;98855.35;422718;1305;98337;-40
2021/11/20 02:06:47;;;;;;;9.40;6.60;;;;;;;9.21;84.99;98859.77;422705;1305;108783;-41
2021/11/20 02:16:59;;;;;;;11.20;7.40;;;;;;;9.24;84.83;98872.48;422358;1305;99374;-41
2021/11/20 02:27:09;;;;;;;12.80;5.90;;;;;;;9.26;84.73;98877.34;423571;1295;112444;-40
2021/11/20 02:37:17;;;;;;;14.50;6.90;;;;;;;9.27;84.84;98875.67;422825;1303;106706;-41
2021/11/20 02:47:27;;;;;;;11.80;6.40;;;;;;;9.25;84.95;98879.57;422594;1303;99219;-40
2021/11/20 02:57:38;;;;;;;10.80;5.90;;;;;;;9.18;85.07;98885.70;422680;1303;108950;-41
2021/11/20 03:07:47;;;;;;;13.10;6.00;;;;;;;9.09;85.49;98903.21;422743;1303;101549;-40
2021/11/20 03:17:54;;;;;;;9.70;6.80;;;;;;;8.98;85.74;98910.27;422858;1303;111569;-43
2021/11/20 03:28:01;;;;;;;7.30;6.20;;;;;;;8.89;86.15;98911.54;422641;1303;108917;-41
2021/11/20 03:38:09;;;;;;;11.00;7.20;;;;;;;8.84;86.45;98900.01;422843;1303;99311;-41
2021/11/20 03:48:18;;;;;;;11.60;6.30;;;;;;;8.83;86.47;98896.29;422638;1304;108889;-41
2021/11/20 03:58:26;;;;;;;12.00;7.60;;;;;;;8.85;86.64;98899.92;422807;1306;99306;-41
2021/11/20 04:08:33;;;;;;;9.20;6.40;;;;;;;8.84;86.80;98897.94;422188;1306;112343;-41
2021/11/20 04:18:42;;;;;;;9.80;6.60;;;;;;;8.79;87.03;98889.82;422842;1306;108805;-41
2021/11/20 04:28:49;;;;;;;10.10;6.80;;;;;;;8.75;87.11;98889.55;422464;1304;98106;-41
2021/11/20 04:38:57;;;;;;;9.80;6.60;;;;;;;8.69;87.13;98883.54;422800;1303;108976;-41
2021/11/20 04:49:05;;;;;;;12.00;7.20;;;;;;;8.67;87.15;98896.60;422621;1303;99306;-40
2021/11/20 04:59:13;;;;;;;9.00;5.80;;;;;;;8.75;87.35;98901.52;422747;1303;112492;-41
2021/11/20 05:09:20;;;;;;;11.00;6.70;;;;;;;8.85;87.39;98896.71;422539;1303;108747;-41
2021/11/20 05:19:27;;;;;;;11.90;6.20;;;;;;;8.89;87.32;98902.37;422666;1304;99312;-44
2021/11/20 05:39:42;;;;;;;14.20;6.40;;;;;;;8.85;87.37;98900.20;422656;1306;99304;-41
2021/11/20 05:49:50;;;;;;;8.80;5.70;;;;;;;8.83;87.08;98912.34;422435;1306;112272;-41
2021/11/20 05:59:57;;;;;;;13.40;6.70;;;;;;;8.80;87.10;98923.13;422592;1306;108839;-40
2021/11/20 06:10:03;;;;;;;12.80;5.90;;;;;;;8.82;87.07;98944.80;422583;1306;99033;-41
2021/11/20 06:20:12;;;;;;;16.00;7.50;;;;;;;8.91;87.07;98957.97;422859;1307;109006;-40
2021/11/20 06:30:23;;;;;;;14.50;6.60;;;;;;;8.99;86.97;98973.04;422696;1306;99313;-41
2021/11/20 06:40:34;;;;;;;10.80;6.20;;;;;;;9.09;86.77;98983.45;422478;1306;112582;-40
2021/11/20 06:50:44;;;;;;;10.60;6.10;;;;;;;9.16;86.82;98986.17;422455;1306;108820;-40
2021/11/20 07:00:55;;;;;;;11.20;7.20;;;;;;;9.23;86.63;98995.59;422701;1306;99385;-41
2021/11/20 07:11:03;;;;;;;18.30;9.20;;;;;;;9.26;86.58;99003.46;422973;1303;108932;-40
2021/11/20 07:21:11;;;;;;;13.50;7.60;;;;;;;9.42;86.52;99012.73;422823;1304;99305;-40
2021/11/20 07:31:19;;;;;;;27.80;15.10;;;;;;;9.65;86.44;99011.15;422803;1304;112572;-40
2021/11/20 07:41:28;;;;;;;10.80;6.40;;;;;;;10.05;86.09;99019.89;422488;1306;108876;-40
2021/11/20 07:51:36;;;;;;;13.60;8.00;;;;;;;10.14;85.49;99018.67;422818;1307;99278;-41
2021/11/20 08:01:44;;;;;;;12.30;9.10;;;;;;;10.24;85.27;99020.26;422485;1306;109280;-41
2021/11/20 08:21:59;;;;;;;11.50;7.50;;;;;;;11.23;85.02;99018.91;422495;1307;112308;-42
2021/11/20 08:32:09;;;;;;;11.80;7.70;;;;;;;11.48;84.32;99020.29;422582;1303;108924;-41
2021/11/20 08:42:16;;;;;;;9.50;5.90;;;;;;;11.39;82.89;99024.95;422736;1303;98375;-41
2021/11/20 08:52:24;;;;;;;9.90;5.40;;;;;;;11.25;82.63;99040.56;422599;1303;108738;-41
2021/11/20 09:02:36;;;;;;;15.70;9.10;;;;;;;11.26;82.41;99043.33;422700;1304;99298;-40
2021/11/20 09:12:47;;;;;;;10.00;5.30;;;;;;;11.10;82.05;99045.16;418946;1303;5371401;-40
2021/11/20 09:22:55;;;;;;;8.60;6.00;;;;;;;11.14;82.09;99047.24;422944;1303;108871;-41
2021/11/20 09:33:02;;;;;;;6.60;4.50;;;;;;;11.10;81.86;99033.96;422898;1303;98090;-41
2021/11/20 09:53:17;;;;;;;7.80;5.80;;;;;;;11.24;81.51;99027.10;422746;1303;99912;-41
2021/11/20 10:03:41;;;;;;;8.60;5.50;;;;;;;11.13;81.11;99029.23;422757;1303;111527;-41
2021/11/20 10:13:47;;;;;;;10.90;5.10;;;;;;;11.17;81.23;99008.02;422804;1303;109478;-42
2021/11/20 10:24:02;;;;;;;9.20;4.70;;;;;;;11.43;80.68;99005.35;422668;1304;98849;-41
2021/11/20 10:34:15;;;;;;;7.40;3.40;;;;;;;11.37;80.12;99005.10;422779;1304;108981;-41
2021/11/20 10:44:26;;;;;;;8.20;4.30;;;;;;;11.17;79.66;99005.67;422827;1310;99256;-41
2021/11/20 10:55:06;;;;;;;7.50;3.90;;;;;;;11.00;79.99;98995.70;422893;1304;111643;-41
2021/11/20 11:05:52;;;;;;;5.30;3.80;;;;;;;10.76;80.35;98991.27;422877;1307;108858;-42
2021/11/20 11:16:01;;;;;;;5.10;3.30;;;;;;;10.70;80.66;98980.64;422840;1304;98079;-41
2021/11/20 11:26:11;;;;;;;4.00;3.20;;;;;;;10.88;80.91;98966.59;422877;1304;107611;-41
2021/11/20 11:46:26;;;;;;;7.50;5.20;;;;;;;11.00;80.73;98959.75;422919;1303;112825;-42
2021/11/20 11:56:34;;;;;;;25.70;14.60;;;;;;;10.79;81.12;98956.33;422733;1303;108808;-41
2021/11/20 12:06:58;;;;;;;10.10;6.40;;;;;;;10.68;81.57;98949.07;422746;1304;99278;-41
2021/11/20 12:17:23;;;;;;;11.90;7.70;;;;;;;10.59;82.02;98935.29;422841;1304;108791;-41
2021/11/20 12:27:33;;;;;;;9.30;6.40;;;;;;;10.52;82.23;98928.22;422622;1304;99326;-41
2021/11/20 12:47:58;;;;;;;15.60;10.80;;;;;;;10.26;82.67;98909.16;422752;1304;108762;-41
2021/11/20 12:58:08;;;;;;;76.30;33.70;;;;;;;10.21;82.83;98901.32;422816;1304;99292;-41
2021/11/20 13:08:30;;;;;;;31.50;18.20;;;;;;;10.05;83.21;98889.84;422862;1304;108880;-41
2021/11/20 13:18:37;;;;;;;7.50;5.20;;;;;;;9.94;83.37;98882.60;422844;1304;99293;-41
2021/11/20 13:28:46;;;;;;;28.10;15.20;;;;;;;9.90;83.43;98877.36;422685;1303;112542;-40
2021/11/20 13:38:54;;;;;;;11.90;7.30;;;;;;;9.81;83.68;98869.85;422645;1304;108851;-42
2021/11/20 13:59:14;;;;;;;9.70;6.90;;;;;;;9.67;83.88;98857.71;422852;1304;108911;-41
2021/11/20 14:09:21;;;;;;;21.80;10.60;;;;;;;9.64;84.17;98851.12;422774;1305;98683;-41
2021/11/20 14:19:31;;;;;;;15.50;9.10;;;;;;;9.63;84.35;98845.85;422704;1304;112457;-41
2021/11/20 14:29:43;;;;;;;16.50;9.20;;;;;;;9.55;84.33;98844.16;422808;1305;108125;-41
2021/11/20 14:49:55;;;;;;;12.10;8.90;;;;;;;9.38;84.80;98830.25;422637;1303;106359;-41
2021/11/20 15:00:05;;;;;;;12.90;9.80;;;;;;;9.33;84.82;98814.59;422850;1307;99243;-42
2021/11/20 15:10:12;;;;;;;18.50;12.40;;;;;;;9.27;84.88;98805.20;422883;1303;112545;-41
2021/11/20 15:20:20;;;;;;;17.80;10.60;;;;;;;9.27;84.96;98791.39;422767;1303;108897;-40
2021/11/20 15:30:28;;;;;;;18.20;13.00;;;;;;;9.25;85.21;98785.33;422757;1304;98944;-41
2021/11/20 15:40:35;;;;;;;13.50;9.10;;;;;;;9.29;85.26;98786.83;422633;1304;107894;-43
2021/11/20 15:50:42;;;;;;;38.10;23.00;;;;;;;9.31;85.22;98782.61;422627;1304;99263;-41
2021/11/20 16:00:50;;;;;;;16.80;12.00;;;;;;;9.31;85.38;98770.85;422676;1303;111439;-42
2021/11/20 16:10:59;;;;;;;24.60;15.30;;;;;;;9.32;85.37;98773.35;422736;1307;109102;-42
2021/11/20 16:31:12;;;;;;;63.20;40.20;;;;;;;9.30;85.52;98748.73;422952;1303;109685;-43
2021/11/20 16:41:20;;;;;;;39.00;21.60;;;;;;;9.26;85.61;98744.40;422685;1304;99300;-41
2021/11/20 17:01:55;;;;;;;23.00;14.40;;;;;;;9.28;85.61;98727.11;422285;1304;108824;-41
2021/11/20 17:12:02;;;;;;;18.60;13.60;;;;;;;9.31;85.35;98724.73;420330;1306;3338379;-41
2021/11/20 17:22:11;;;;;;;33.30;25.10;;;;;;;9.30;85.45;98725.11;422430;1306;109406;-41
2021/11/20 17:32:19;;;;;;;29.70;19.20;;;;;;;9.23;85.43;98709.38;422881;1303;99307;-42
2021/11/20 17:42:25;;;;;;;21.50;12.90;;;;;;;9.17;85.24;98700.87;422741;1303;111101;-41
2021/11/20 17:52:42;;;;;;;28.80;17.00;;;;;;;9.21;85.16;98699.25;422522;1304;108555;-41
2021/11/20 18:12:58;;;;;;;26.60;16.80;;;;;;;9.29;85.11;98679.37;422473;1306;108880;-41
2021/11/20 18:23:06;;;;;;;50.70;21.70;;;;;;;9.24;85.23;98659.45;422566;1306;98912;-41
2021/11/20 18:33:14;;;;;;;32.90;19.00;;;;;;;9.14;85.21;98648.66;422784;1306;111541;-42
2021/11/20 18:43:22;;;;;;;41.00;21.20;;;;;;;9.13;85.12;98642.76;422403;1304;108914;-42
2021/11/20 18:53:30;;;;;;;31.80;20.50;;;;;;;9.15;85.08;98632.47;422585;1303;99273;-41
2021/11/20 19:03:38;;;;;;;31.60;20.20;;;;;;;9.16;85.19;98621.79;422532;1303;108757;-41
2021/11/20 19:13:45;;;;;;;22.90;12.20;;;;;;;9.15;85.03;98616.23;422684;1304;99302;-41
2021/11/20 19:23:55;;;;;;;22.80;13.70;;;;;;;9.14;85.13;98603.91;422749;1303;112841;-41
2021/11/20 19:44:10;;;;;;;18.40;12.70;;;;;;;8.95;84.85;98591.95;422549;1304;99939;-42
2021/11/20 20:04:25;;;;;;;32.40;20.00;;;;;;;8.87;85.06;98574.30;422744;1304;98899;-41
2021/11/20 20:14:33;;;;;;;25.80;16.30;;;;;;;8.89;85.11;98562.00;422710;1303;112458;-41
2021/11/20 20:24:41;;;;;;;36.60;21.50;;;;;;;8.80;85.08;98555.52;422772;1304;107084;-44
2021/11/20 20:34:49;;;;;;;36.00;20.90;;;;;;;8.65;85.21;98546.13;422775;1304;99351;-41
2021/11/20 20:44:57;;;;;;;31.70;19.70;;;;;;;8.58;85.06;98532.58;422659;1303;108877;-41
2021/11/20 20:55:04;;;;;;;28.60;17.30;;;;;;;8.60;85.14;98515.99;422779;1304;99277;-41
2021/11/20 21:05:10;;;;;;;86.40;37.90;;;;;;;8.64;85.12;98510.93;422764;1304;112486;-42
2021/11/20 21:15:17;;;;;;;81.60;35.40;;;;;;;8.63;84.98;98499.46;422690;1303;107977;-41
2021/11/20 21:35:34;;;;;;;148.70;57.80;;;;;;;8.52;85.05;98493.14;422936;1303;108899;-41
2021/11/20 21:45:41;;;;;;;50.00;26.60;;;;;;;8.48;84.76;98488.06;422724;1304;99262;-41
2021/11/20 21:55:49;;;;;;;52.80;27.00;;;;;;;8.44;84.76;98475.67;422823;1303;112382;-41
2021/11/20 22:05:55;;;;;;;40.50;24.50;;;;;;;8.46;84.83;98466.12;422750;1304;110907;-41
2021/11/20 22:16:04;;;;;;;22.00;14.00;;;;;;;8.51;84.93;98456.22;422744;1303;99424;-42
2021/11/20 22:26:22;;;;;;;33.60;19.80;;;;;;;8.52;84.69;98441.58;422680;1304;109067;-41
2021/11/20 22:36:29;;;;;;;44.30;25.70;;;;;;;8.51;84.64;98428.98;422790;1303;99281;-41
2021/11/20 22:46:37;;;;;;;40.40;24.00;;;;;;;8.45;84.72;98425.89;422689;1303;112085;-40
2021/11/20 22:56:45;;;;;;;27.70;15.20;;;;;;;8.42;84.44;98408.16;422590;1304;108741;-41
2021/11/20 23:06:52;;;;;;;44.80;20.50;;;;;;;8.41;84.45;98394.60;422894;1304;99388;-41
2021/11/20 23:17:00;;;;;;;27.00;16.90;;;;;;;8.41;84.28;98375.63;422549;1303;109472;-43
2021/11/20 23:27:08;;;;;;;24.30;14.00;;;;;;;8.42;84.42;98359.69;422777;1300;98085;-40
2021/11/20 23:37:16;;;;;;;26.90;15.60;;;;;;;8.36;84.36;98345.02;422796;1303;112622;-42
2021/11/20 23:47:43;;;;;;;19.30;12.40;;;;;;;8.35;84.33;98338.81;422768;1303;109119;-41
2021/11/20 23:57:51;;;;;;;17.40;11.70;;;;;;;8.32;84.00;98318.94;422715;1304;99942;-44
